createdAt,value
2023-04-23T00:00:24.529Z,8.70
2023-04-23T00:01:41.097Z,6.63
2023-04-23T00:02:59.011Z,11.45
2023-04-23T00:04:13.819Z,10.20
2023-04-23T00:05:31.721Z,23.83
2023-04-23T00:06:36.998Z,10.20
2023-04-23T00:07:44.357Z,10.85
2023-04-23T00:08:51.145Z,12.45
2023-04-23T00:09:57.993Z,14.25
2023-04-23T00:11:03.161Z,13.15
2023-04-23T00:12:08.412Z,8.85
2023-04-23T00:13:12.794Z,7.97
2023-04-23T00:14:16.795Z,9.68
2023-04-23T00:15:22.394Z,12.45
2023-04-23T00:16:27.042Z,8.00
2023-04-23T00:17:34.026Z,9.10
2023-04-23T00:18:38.232Z,9.60
2023-04-23T00:19:42.384Z,14.95
2023-04-23T00:20:46.050Z,12.80
2023-04-23T00:21:50.038Z,11.77
2023-04-23T00:22:54.119Z,8.70
2023-04-23T00:23:58.714Z,12.18
2023-04-23T00:25:02.527Z,10.90
2023-04-23T00:26:09.478Z,10.07
2023-04-23T00:27:13.971Z,7.50
2023-04-23T00:28:18.740Z,9.48
2023-04-23T00:29:23.949Z,7.25
2023-04-23T00:30:35.552Z,11.13
2023-04-23T00:31:40.338Z,11.70
2023-04-23T00:32:44.997Z,10.60
2023-04-23T00:33:48.978Z,9.73
2023-04-23T00:34:53.289Z,11.07
2023-04-23T00:35:57.056Z,25.35
2023-04-23T00:37:01.130Z,11.68
2023-04-23T00:38:05.274Z,12.35
2023-04-23T00:39:10.044Z,9.73
2023-04-23T00:40:15.072Z,8.10
2023-04-23T00:41:19.920Z,10.63
2023-04-23T00:42:27.087Z,8.07
2023-04-23T00:43:32.234Z,16.27
2023-04-23T00:44:37.482Z,7.00
2023-04-23T00:45:42.066Z,8.07
2023-04-23T00:46:47.213Z,12.73
2023-04-23T00:47:51.540Z,10.13
2023-04-23T00:48:55.790Z,9.52
2023-04-23T00:50:02.173Z,18.02
2023-04-23T00:51:07.444Z,10.30
2023-04-23T00:52:11.432Z,6.07
2023-04-23T00:53:15.795Z,11.40
2023-04-23T00:54:19.830Z,7.03
2023-04-23T00:55:24.127Z,11.13
2023-04-23T00:56:28.960Z,9.18
2023-04-23T00:57:33.995Z,11.68
2023-04-23T00:58:38.583Z,13.98
2023-04-23T00:59:42.855Z,7.38
2023-04-23T01:00:49.405Z,7.65
2023-04-23T01:01:54.900Z,9.20
2023-04-23T01:03:01.952Z,9.18
2023-04-23T01:04:07.384Z,9.65
2023-04-23T01:05:12.274Z,12.50
2023-04-23T01:06:20.050Z,13.73
2023-04-23T01:07:24.511Z,15.98
2023-04-23T01:08:30.885Z,8.50
2023-04-23T01:09:35.719Z,6.07
2023-04-23T01:10:41.076Z,6.43
2023-04-23T01:11:45.293Z,7.43
2023-04-23T01:12:50.931Z,12.30
2023-04-23T01:13:56.837Z,10.75
2023-04-23T01:15:02.572Z,8.73
2023-04-23T01:16:08.358Z,8.13
2023-04-23T01:17:13.768Z,14.55
2023-04-23T01:18:20.345Z,6.47
2023-04-23T01:19:24.796Z,7.82
2023-04-23T01:20:28.727Z,5.75
2023-04-23T01:21:34.351Z,8.93
2023-04-23T01:22:38.793Z,6.32
2023-04-23T01:23:42.970Z,9.75
2023-04-23T01:24:51.402Z,6.38
2023-04-23T01:25:56.246Z,10.02
2023-04-23T01:26:59.993Z,5.15
2023-04-23T01:28:09.232Z,8.82
2023-04-23T01:29:14.152Z,4.90
2023-04-23T01:30:18.330Z,7.22
2023-04-23T01:31:23.497Z,10.95
2023-04-23T01:32:27.815Z,7.40
2023-04-23T01:33:33.112Z,10.27
2023-04-23T01:34:39.037Z,9.93
2023-04-23T01:35:45.457Z,7.32
2023-04-23T01:36:56.361Z,9.70
2023-04-23T01:38:03.660Z,12.68
2023-04-23T01:39:09.298Z,9.05
2023-04-23T01:40:13.393Z,11.90
2023-04-23T01:41:17.434Z,10.45
2023-04-23T01:42:23.271Z,9.23
2023-04-23T01:43:28.651Z,14.68
2023-04-23T01:44:32.652Z,10.43
2023-04-23T01:45:36.811Z,12.15
2023-04-23T01:46:43.359Z,8.55
2023-04-23T01:47:48.102Z,8.15
2023-04-23T01:48:52.038Z,5.70
2023-04-23T01:49:56.444Z,5.95
2023-04-23T01:51:01.307Z,9.75
2023-04-23T01:52:05.402Z,6.07
2023-04-23T01:53:09.528Z,6.22
2023-04-23T01:54:13.307Z,6.45
2023-04-23T01:55:19.316Z,8.63
2023-04-23T01:56:29.361Z,12.35
2023-04-23T01:57:33.768Z,4.25
2023-04-23T01:58:38.194Z,9.98
2023-04-23T01:59:43.420Z,7.18
2023-04-23T02:05:06.204Z,7.00
2023-04-23T02:06:11.421Z,9.68
2023-04-23T02:07:18.828Z,8.90
2023-04-23T02:08:23.556Z,12.15
2023-04-23T02:09:30.469Z,5.00
2023-04-23T02:10:34.465Z,10.32
2023-04-23T02:11:39.703Z,6.90
2023-04-23T02:12:45.379Z,6.63
2023-04-23T02:13:49.449Z,8.20
2023-04-23T02:14:54.699Z,10.35
2023-04-23T02:15:59.637Z,10.20
2023-04-23T02:17:05.273Z,11.52
2023-04-23T02:18:12.318Z,8.30
2023-04-23T02:19:17.525Z,7.93
2023-04-23T02:20:22.708Z,5.75
2023-04-23T02:21:27.819Z,6.78
2023-04-23T02:22:34.753Z,9.10
2023-04-23T02:23:39.272Z,5.60
2023-04-23T02:24:44.552Z,8.88
2023-04-23T02:25:48.347Z,5.18
2023-04-23T02:26:53.976Z,4.22
2023-04-23T02:27:57.948Z,5.30
2023-04-23T02:29:02.200Z,10.85
2023-04-23T02:30:08.645Z,10.55
2023-04-23T02:31:16.185Z,6.50
2023-04-23T02:32:20.624Z,5.95
2023-04-23T02:33:27.274Z,7.72
2023-04-23T02:34:31.913Z,10.20
2023-04-23T02:35:36.784Z,9.13
2023-04-23T02:36:41.343Z,10.02
2023-04-23T02:37:45.630Z,7.13
2023-04-23T02:38:51.299Z,5.40
2023-04-23T02:39:56.190Z,7.70
2023-04-23T02:41:00.268Z,8.43
2023-04-23T02:42:04.854Z,8.68
2023-04-23T02:43:12.727Z,7.15
2023-04-23T02:44:16.485Z,7.78
2023-04-23T02:45:20.515Z,12.65
2023-04-23T02:46:24.530Z,3.95
2023-04-23T02:47:28.787Z,5.85
2023-04-23T02:48:33.483Z,5.22
2023-04-23T02:49:47.132Z,7.18
2023-04-23T02:50:51.911Z,7.35
2023-04-23T02:51:55.950Z,9.57
2023-04-23T02:52:59.739Z,10.27
2023-04-23T02:54:04.350Z,6.45
2023-04-23T02:55:10.199Z,6.38
2023-04-23T02:56:13.889Z,7.45
2023-04-23T02:57:17.588Z,8.02
2023-04-23T02:58:21.690Z,5.93
2023-04-23T02:59:27.414Z,8.80
2023-04-23T03:00:33.274Z,8.80
2023-04-23T03:01:39.646Z,9.60
2023-04-23T03:02:43.732Z,6.20
2023-04-23T03:03:50.856Z,4.43
2023-04-23T03:04:55.626Z,5.75
2023-04-23T03:06:01.536Z,8.77
2023-04-23T03:07:05.632Z,10.63
2023-04-23T03:08:09.848Z,4.05
2023-04-23T03:09:14.050Z,6.78
2023-04-23T03:10:21.380Z,5.68
2023-04-23T03:11:25.496Z,6.13
2023-04-23T03:12:29.192Z,6.15
2023-04-23T03:13:33.229Z,3.22
2023-04-23T03:14:36.880Z,4.38
2023-04-23T03:15:41.474Z,8.02
2023-04-23T03:16:45.290Z,7.88
2023-04-23T03:17:51.447Z,4.18
2023-04-23T03:18:57.412Z,6.30
2023-04-23T03:20:04.654Z,3.53
2023-04-23T03:21:08.531Z,6.38
2023-04-23T03:22:12.331Z,8.18
2023-04-23T03:23:19.164Z,3.50
2023-04-23T03:24:23.060Z,6.78
2023-04-23T03:25:27.317Z,6.72
2023-04-23T03:26:32.133Z,3.25
2023-04-23T03:27:37.856Z,8.57
2023-04-23T03:28:43.307Z,7.00
2023-04-23T03:29:47.153Z,10.43
2023-04-23T03:30:51.296Z,5.82
2023-04-23T03:31:55.549Z,10.35
2023-04-23T03:33:01.625Z,5.10
2023-04-23T03:34:05.547Z,7.65
2023-04-23T03:35:09.966Z,6.72
2023-04-23T03:36:13.594Z,5.22
2023-04-23T03:37:17.554Z,7.05
2023-04-23T03:38:21.276Z,6.78
2023-04-23T03:39:24.944Z,5.10
2023-04-23T03:40:28.734Z,5.43
2023-04-23T03:41:32.428Z,6.75
2023-04-23T03:42:36.220Z,9.60
2023-04-23T03:43:39.785Z,6.72
2023-04-23T03:44:43.577Z,6.95
2023-04-23T03:45:47.578Z,10.13
2023-04-23T03:46:52.428Z,6.28
2023-04-23T03:47:56.560Z,4.93
2023-04-23T03:49:00.277Z,6.85
2023-04-23T03:50:04.933Z,6.55
2023-04-23T03:51:08.790Z,7.93
2023-04-23T03:52:12.810Z,8.50
2023-04-23T03:53:18.001Z,9.07
2023-04-23T03:54:23.489Z,8.98
2023-04-23T03:55:29.936Z,7.53
2023-04-23T03:56:33.950Z,5.80
2023-04-23T03:57:41.320Z,5.75
2023-04-23T03:58:45.355Z,6.45
2023-04-23T03:59:49.199Z,6.68
2023-04-23T04:00:53.344Z,14.75
2023-04-23T04:01:57.144Z,7.97
2023-04-23T04:03:02.313Z,9.82
2023-04-23T04:04:06.496Z,3.97
2023-04-23T04:05:13.734Z,5.32
2023-04-23T04:06:17.806Z,6.40
2023-04-23T04:07:22.296Z,3.75
2023-04-23T04:08:27.464Z,5.15
2023-04-23T04:09:31.905Z,5.50
2023-04-23T04:10:35.725Z,5.10
2023-04-23T04:11:39.959Z,9.73
2023-04-23T04:12:46.484Z,3.30
2023-04-23T04:13:50.484Z,5.13
2023-04-23T04:14:55.019Z,4.75
2023-04-23T04:15:58.923Z,6.25
2023-04-23T04:17:02.787Z,5.20
2023-04-23T04:18:07.119Z,8.10
2023-04-23T04:19:11.254Z,4.95
2023-04-23T04:20:15.198Z,5.00
2023-04-23T04:21:19.491Z,4.45
2023-04-23T04:22:24.284Z,5.22
2023-04-23T04:23:29.118Z,9.05
2023-04-23T04:24:33.494Z,5.43
2023-04-23T04:25:40.498Z,5.80
2023-04-23T04:26:45.707Z,3.85
2023-04-23T04:27:49.531Z,14.82
2023-04-23T04:28:53.471Z,9.30
2023-04-23T04:29:57.302Z,5.53
2023-04-23T04:31:03.401Z,6.88
2023-04-23T04:32:10.159Z,5.40
2023-04-23T04:33:15.551Z,6.15
2023-04-23T04:34:20.497Z,4.18
2023-04-23T04:35:27.577Z,5.30
2023-04-23T04:36:32.099Z,4.65
2023-04-23T04:37:36.930Z,3.80
2023-04-23T04:38:42.004Z,7.80
2023-04-23T04:39:45.824Z,10.20
2023-04-23T04:40:50.673Z,3.63
2023-04-23T04:41:54.902Z,7.72
2023-04-23T04:43:00.421Z,3.95
2023-04-23T04:44:04.593Z,4.82
2023-04-23T04:45:09.206Z,5.93
2023-04-23T04:46:13.031Z,4.18
2023-04-23T04:47:17.390Z,6.95
2023-04-23T04:48:22.131Z,8.63
2023-04-23T04:49:27.095Z,8.18
2023-04-23T04:50:34.136Z,7.32
2023-04-23T04:51:39.754Z,8.35
2023-04-23T04:52:43.761Z,5.35
2023-04-23T04:53:47.908Z,5.97
2023-04-23T04:54:51.831Z,8.23
2023-04-23T04:55:55.654Z,7.95
2023-04-23T04:56:59.254Z,7.30
2023-04-23T04:58:03.316Z,4.43
2023-04-23T04:59:06.953Z,5.38
2023-04-23T05:00:31.053Z,6.28
2023-04-23T05:01:37.401Z,5.18
2023-04-23T05:02:41.632Z,4.28
2023-04-23T05:03:46.206Z,3.75
2023-04-23T05:04:50.916Z,5.97
2023-04-23T05:05:59.158Z,5.63
2023-04-23T05:07:04.020Z,4.18
2023-04-23T05:08:08.807Z,12.15
2023-04-23T05:09:12.770Z,3.83
2023-04-23T05:10:16.904Z,9.10
2023-04-23T05:11:21.299Z,10.73
2023-04-23T05:12:25.671Z,6.65
2023-04-23T05:13:30.009Z,5.93
2023-04-23T05:14:34.444Z,6.43
2023-04-23T05:15:38.656Z,6.63
2023-04-23T05:16:42.686Z,5.70
2023-04-23T05:17:46.610Z,7.65
2023-04-23T05:18:50.737Z,8.52
2023-04-23T05:19:54.639Z,7.38
2023-04-23T05:20:58.844Z,10.13
2023-04-23T05:22:03.864Z,6.65
2023-04-23T05:23:07.829Z,7.68
2023-04-23T05:24:11.406Z,7.93
2023-04-23T05:25:15.755Z,5.03
2023-04-23T05:26:21.066Z,9.27
2023-04-23T05:27:25.170Z,10.63
2023-04-23T05:28:31.125Z,8.25
2023-04-23T05:29:34.789Z,5.50
2023-04-23T05:30:39.818Z,9.90
2023-04-23T05:31:43.444Z,9.48
2023-04-23T05:32:47.637Z,5.78
2023-04-23T05:33:51.800Z,9.98
2023-04-23T05:34:56.256Z,5.93
2023-04-23T05:36:07.455Z,5.18
2023-04-23T05:37:11.402Z,4.32
2023-04-23T05:38:15.310Z,6.50
2023-04-23T05:39:19.184Z,6.43
2023-04-23T05:40:23.197Z,5.65
2023-04-23T05:41:27.458Z,8.00
2023-04-23T05:42:32.418Z,8.60
2023-04-23T05:43:36.434Z,6.30
2023-04-23T05:44:42.300Z,6.85
2023-04-23T05:45:46.628Z,7.25
2023-04-23T05:46:50.570Z,5.57
2023-04-23T05:47:54.443Z,7.00
2023-04-23T05:48:58.141Z,6.75
2023-04-23T05:50:02.728Z,9.27
2023-04-23T05:51:07.346Z,8.10
2023-04-23T05:52:12.372Z,8.95
2023-04-23T05:53:16.220Z,9.60
2023-04-23T05:54:19.967Z,8.18
2023-04-23T05:55:24.548Z,7.72
2023-04-23T05:56:28.371Z,6.57
2023-04-23T05:57:32.238Z,8.25
2023-04-23T05:58:35.915Z,6.97
2023-04-23T05:59:40.029Z,8.38
2023-04-23T06:00:45.333Z,8.90
2023-04-23T06:01:50.578Z,8.70
2023-04-23T06:02:55.133Z,8.00
2023-04-23T06:03:59.175Z,10.43
2023-04-23T06:05:03.367Z,6.90
2023-04-23T06:06:11.492Z,6.72
2023-04-23T06:07:15.608Z,5.90
2023-04-23T06:08:20.876Z,15.57
2023-04-23T06:09:24.922Z,18.50
2023-04-23T06:10:29.608Z,8.25
2023-04-23T06:11:33.608Z,10.32
2023-04-23T06:12:42.368Z,8.57
2023-04-23T06:13:46.608Z,14.43
2023-04-23T06:14:52.298Z,6.25
2023-04-23T06:15:56.077Z,9.85
2023-04-23T06:17:00.031Z,5.57
2023-04-23T06:18:03.895Z,5.45
2023-04-23T06:19:08.056Z,10.98
2023-04-23T06:20:12.208Z,8.32
2023-04-23T06:21:18.040Z,7.68
2023-04-23T06:22:23.564Z,15.50
2023-04-23T06:23:27.240Z,8.90
2023-04-23T06:24:32.180Z,9.75
2023-04-23T06:25:35.937Z,18.25
2023-04-23T06:26:40.854Z,7.75
2023-04-23T06:27:44.582Z,11.48
2023-04-23T06:28:49.113Z,10.93
2023-04-23T06:29:57.921Z,12.30
2023-04-23T06:31:02.956Z,9.15
2023-04-23T06:32:06.864Z,7.38
2023-04-23T06:33:11.249Z,5.97
2023-04-23T06:34:16.748Z,5.85
2023-04-23T06:35:21.760Z,5.95
2023-04-23T06:36:26.682Z,7.03
2023-04-23T06:37:33.783Z,9.00
2023-04-23T06:38:38.660Z,9.45
2023-04-23T06:39:42.386Z,12.18
2023-04-23T06:40:46.569Z,7.90
2023-04-23T06:41:54.516Z,5.35
2023-04-23T06:42:58.646Z,6.25
2023-04-23T06:44:02.740Z,11.23
2023-04-23T06:45:07.758Z,13.13
2023-04-23T06:46:11.553Z,6.10
2023-04-23T06:47:15.276Z,11.32
2023-04-23T06:48:19.385Z,6.90
2023-04-23T06:49:23.366Z,9.25
2023-04-23T06:50:33.450Z,8.15
2023-04-23T06:51:37.489Z,12.27
2023-04-23T06:52:41.972Z,9.18
2023-04-23T06:53:47.333Z,8.35
2023-04-23T06:54:52.071Z,8.57
2023-04-23T06:55:55.907Z,7.50
2023-04-23T06:56:59.786Z,5.90
2023-04-23T06:58:03.878Z,6.85
2023-04-23T06:59:09.240Z,8.73
2023-04-23T07:00:13.833Z,7.03
2023-04-23T07:01:23.171Z,8.77
2023-04-23T07:02:28.243Z,11.38
2023-04-23T07:03:32.302Z,7.68
2023-04-23T07:04:37.265Z,6.13
2023-04-23T07:05:40.981Z,5.57
2023-04-23T07:06:45.317Z,8.15
2023-04-23T07:07:49.607Z,6.85
2023-04-23T07:08:54.133Z,8.20
2023-04-23T07:09:57.941Z,5.65
2023-04-23T07:11:02.823Z,5.88
2023-04-23T07:12:08.390Z,10.10
2023-04-23T07:13:12.649Z,6.20
2023-04-23T07:14:17.039Z,7.15
2023-04-23T07:15:20.878Z,13.10
2023-04-23T07:16:25.895Z,5.70
2023-04-23T07:17:29.874Z,7.80
2023-04-23T07:18:33.899Z,6.43
2023-04-23T07:19:38.844Z,5.43
2023-04-23T07:20:42.917Z,7.22
2023-04-23T07:21:49.573Z,5.10
2023-04-23T07:22:54.014Z,7.43
2023-04-23T07:24:18.641Z,10.82
2023-04-23T07:25:24.747Z,8.95
2023-04-23T07:26:28.554Z,5.38
2023-04-23T07:27:32.535Z,6.55
2023-04-23T07:28:39.359Z,16.13
2023-04-23T07:29:49.906Z,4.40
2023-04-23T07:30:53.610Z,6.35
2023-04-23T07:31:57.621Z,4.60
2023-04-23T07:33:01.489Z,8.48
2023-04-23T07:34:05.246Z,5.60
2023-04-23T07:35:10.839Z,3.78
2023-04-23T07:36:14.538Z,7.38
2023-04-23T07:37:18.274Z,5.32
2023-04-23T07:38:21.909Z,5.93
2023-04-23T07:39:25.703Z,5.43
2023-04-23T07:40:29.589Z,8.98
2023-04-23T07:41:33.910Z,4.03
2023-04-23T07:42:37.842Z,4.10
2023-04-23T07:43:42.992Z,7.93
2023-04-23T07:44:46.708Z,4.55
2023-04-23T07:45:50.719Z,5.00
2023-04-23T07:46:54.662Z,4.43
2023-04-23T07:48:02.434Z,4.57
2023-04-23T07:49:08.063Z,4.60
2023-04-23T07:50:12.117Z,7.40
2023-04-23T07:51:16.676Z,6.05
2023-04-23T07:52:21.149Z,4.60
2023-04-23T07:53:28.638Z,3.15
2023-04-23T07:54:33.516Z,6.57
2023-04-23T07:55:38.436Z,4.80
2023-04-23T07:56:47.953Z,5.90
2023-04-23T07:57:55.862Z,3.40
2023-04-23T07:59:01.046Z,4.60
2023-04-23T08:00:09.637Z,3.63
2023-04-23T08:01:22.588Z,5.63
2023-04-23T08:02:28.003Z,10.25
2023-04-23T08:03:33.063Z,4.43
2023-04-23T08:04:37.370Z,3.95
2023-04-23T08:05:44.497Z,4.35
2023-04-23T08:06:52.415Z,3.35
2023-04-23T08:07:58.980Z,3.17
2023-04-23T08:09:07.020Z,4.75
2023-04-23T08:10:11.142Z,3.03
2023-04-23T08:11:15.750Z,3.15
2023-04-23T08:12:21.745Z,5.88
2023-04-23T08:13:27.239Z,3.10
2023-04-23T08:14:31.943Z,3.00
2023-04-23T08:15:36.447Z,4.78
2023-04-23T08:16:40.860Z,7.15
2023-04-23T08:17:44.606Z,3.47
2023-04-23T08:19:01.667Z,4.80
2023-04-23T08:20:09.262Z,3.20
2023-04-23T08:21:14.085Z,5.80
2023-04-23T08:22:18.476Z,6.68
2023-04-23T08:23:23.565Z,3.15
2023-04-23T08:24:27.586Z,3.88
2023-04-23T08:25:32.862Z,3.00
2023-04-23T08:26:36.838Z,2.92
2023-04-23T08:27:40.869Z,5.75
2023-04-23T08:28:46.686Z,3.45
2023-04-23T08:29:50.819Z,2.47
2023-04-23T08:30:54.885Z,3.97
2023-04-23T08:31:59.309Z,2.22
2023-04-23T08:33:03.146Z,3.30
2023-04-23T08:34:07.390Z,2.05
2023-04-23T08:35:11.695Z,2.03
2023-04-23T08:36:15.702Z,3.20
2023-04-23T08:37:29.848Z,6.85
2023-04-23T08:38:34.715Z,1.88
2023-04-23T08:39:39.010Z,3.00
2023-04-23T08:40:46.686Z,3.22
2023-04-23T08:41:56.490Z,1.77
2023-04-23T08:43:11.184Z,8.10
2023-04-23T08:44:23.562Z,4.55
2023-04-23T08:45:29.127Z,1.70
2023-04-23T08:46:36.831Z,4.70
2023-04-23T08:47:46.030Z,4.28
2023-04-23T08:48:53.621Z,6.40
2023-04-23T08:50:01.127Z,5.70
2023-04-23T08:51:09.795Z,1.92
2023-04-23T08:52:23.194Z,2.30
2023-04-23T08:53:28.322Z,7.72
2023-04-23T08:54:38.123Z,6.80
2023-04-23T08:55:42.285Z,2.97
2023-04-23T08:56:47.939Z,3.88
2023-04-23T08:57:52.200Z,2.42
2023-04-23T08:58:57.229Z,3.78
2023-04-23T09:00:06.615Z,3.22
2023-04-23T09:01:11.512Z,4.47
2023-04-23T09:02:18.039Z,2.72
2023-04-23T09:03:28.946Z,3.50
2023-04-23T09:04:39.434Z,3.63
2023-04-23T09:05:46.151Z,5.20
2023-04-23T09:06:50.513Z,4.82
2023-04-23T09:07:55.186Z,5.65
2023-04-23T09:09:01.121Z,4.53
2023-04-23T09:10:07.489Z,5.95
2023-04-23T09:11:12.090Z,4.18
2023-04-23T09:12:17.272Z,3.70
2023-04-23T09:13:23.248Z,1.77
2023-04-23T09:14:27.632Z,2.58
2023-04-23T09:15:32.521Z,2.45
2023-04-23T09:16:42.780Z,2.65
2023-04-23T09:17:47.895Z,2.88
2023-04-23T09:18:52.752Z,2.17
2023-04-23T09:19:56.873Z,2.13
2023-04-23T09:21:04.282Z,4.82
2023-04-23T09:22:09.383Z,3.13
2023-04-23T09:23:16.359Z,9.30
2023-04-23T09:24:26.025Z,5.10
2023-04-23T09:25:30.572Z,4.47
2023-04-23T09:26:34.581Z,2.60
2023-04-23T09:27:42.211Z,3.33
2023-04-23T09:28:53.552Z,5.45
2023-04-23T09:29:57.909Z,3.47
2023-04-23T09:31:02.512Z,2.40
2023-04-23T09:32:10.622Z,2.58
2023-04-23T09:33:17.836Z,3.10
2023-04-23T09:34:24.295Z,3.78
2023-04-23T09:35:38.000Z,2.20
2023-04-23T09:36:46.338Z,4.75
2023-04-23T09:37:53.576Z,3.53
2023-04-23T09:39:12.926Z,3.08
2023-04-23T09:40:27.525Z,2.78
2023-04-23T09:41:31.503Z,4.05
2023-04-23T09:42:37.731Z,6.30
2023-04-23T09:43:50.279Z,5.97
2023-04-23T09:45:00.485Z,2.67
2023-04-23T09:46:06.490Z,5.07
2023-04-23T09:47:19.145Z,6.57
2023-04-23T09:48:25.412Z,5.32
2023-04-23T09:49:49.859Z,2.30
2023-04-23T09:51:04.375Z,5.22
2023-04-23T09:52:15.042Z,2.45
2023-04-23T09:53:27.799Z,3.83
2023-04-23T09:54:37.295Z,4.25
2023-04-23T09:55:43.902Z,2.42
2023-04-23T09:57:01.048Z,5.95
2023-04-23T09:58:16.851Z,3.63
2023-04-23T09:59:45.964Z,3.03
2023-04-23T10:01:06.493Z,3.45
2023-04-23T10:02:16.204Z,4.53
2023-04-23T10:03:36.247Z,2.17
2023-04-23T10:04:43.045Z,2.88
2023-04-23T10:06:00.636Z,2.40
2023-04-23T10:08:28.625Z,4.60
2023-04-23T10:09:33.453Z,1.55
2023-04-23T10:12:20.720Z,2.55
2023-04-23T10:13:40.089Z,2.58
2023-04-23T10:14:54.907Z,2.88
2023-04-23T10:16:18.641Z,3.22
2023-04-23T10:17:29.482Z,6.22
2023-04-23T10:18:38.142Z,5.78
2023-04-23T10:20:02.667Z,6.03
2023-04-23T10:21:08.564Z,3.40
2023-04-23T10:22:19.854Z,2.92
2023-04-23T10:23:44.944Z,1.63
2023-04-23T10:24:57.357Z,7.32
2023-04-23T10:26:05.253Z,1.48
2023-04-23T10:27:28.470Z,2.75
2023-04-23T10:28:41.168Z,2.72
2023-04-23T10:29:46.010Z,2.35
2023-04-23T10:30:51.040Z,1.58
2023-04-23T10:31:57.996Z,2.72
2023-04-23T10:33:06.093Z,1.30
2023-04-23T10:34:13.420Z,2.15
2023-04-23T10:35:17.249Z,1.70
2023-04-23T10:36:25.916Z,1.95
2023-04-23T10:37:31.292Z,1.92
2023-04-23T10:40:17.422Z,1.60
2023-04-23T10:41:45.756Z,2.17
2023-04-23T10:42:54.271Z,2.58
2023-04-23T10:44:01.165Z,2.70
2023-04-23T10:45:23.983Z,1.73
2023-04-23T10:46:34.827Z,3.40
2023-04-23T10:47:49.029Z,2.33
2023-04-23T10:49:16.501Z,3.67
2023-04-23T10:50:21.849Z,2.13
2023-04-23T10:52:47.086Z,1.95
2023-04-23T10:53:56.890Z,3.75
2023-04-23T10:55:03.823Z,2.80
2023-04-23T10:56:10.567Z,2.25
2023-04-23T10:57:14.887Z,1.58
2023-04-23T10:58:18.689Z,2.38
2023-04-23T10:59:23.101Z,3.10
2023-04-23T11:01:09.126Z,1.67
2023-04-23T11:02:19.563Z,5.00
2023-04-23T11:03:46.545Z,3.33
2023-04-23T11:05:01.668Z,2.22
2023-04-23T11:06:21.319Z,1.85
2023-04-23T11:07:42.627Z,2.78
2023-04-23T11:08:57.787Z,4.07
2023-04-23T11:10:17.203Z,1.77
2023-04-23T11:11:55.883Z,2.10
2023-04-23T11:14:56.517Z,3.80
2023-04-23T11:16:32.596Z,3.05
2023-04-23T11:17:42.627Z,1.85
2023-04-23T11:19:11.534Z,1.83
2023-04-23T11:20:30.678Z,1.50
2023-04-23T11:22:00.148Z,5.68
2023-04-23T11:23:35.371Z,1.35
2023-04-23T11:24:45.237Z,1.77
2023-04-23T11:25:50.890Z,1.85
2023-04-23T11:26:56.333Z,2.95
2023-04-23T11:28:01.569Z,1.33
2023-04-23T11:29:25.488Z,1.73
2023-04-23T11:31:06.663Z,1.65
2023-04-23T11:32:28.482Z,2.10
2023-04-23T11:33:41.928Z,4.00
2023-04-23T11:34:53.655Z,2.97
2023-04-23T11:36:01.056Z,2.45
2023-04-23T11:37:21.704Z,1.13
2023-04-23T11:38:41.730Z,1.38
2023-04-23T11:40:08.834Z,2.03
2023-04-23T11:42:09.594Z,2.20
2023-04-23T11:43:00.398Z,1.20
2023-04-23T11:44:06.924Z,5.00
2023-04-23T11:45:45.788Z,5.18
2023-04-23T11:46:57.852Z,2.42
2023-04-23T11:48:11.543Z,1.60
2023-04-23T11:49:21.639Z,2.17
2023-04-23T11:50:40.644Z,2.28
2023-04-23T11:51:52.787Z,1.95
2023-04-23T11:52:59.001Z,1.30
2023-04-23T11:54:05.430Z,3.65
2023-04-23T11:55:12.911Z,0.98
2023-04-23T11:56:20.772Z,1.83
2023-04-23T11:57:27.160Z,1.40
2023-04-23T11:58:39.456Z,2.83
2023-04-23T11:59:46.982Z,1.85
2023-04-23T12:01:04.232Z,5.75
2023-04-23T12:02:13.524Z,2.45
2023-04-23T12:03:21.018Z,1.35
2023-04-23T12:04:31.866Z,2.55
2023-04-23T12:05:41.223Z,1.60
2023-04-23T12:06:49.603Z,2.65
2023-04-23T12:07:53.615Z,2.28
2023-04-23T12:08:57.388Z,1.75
2023-04-23T12:10:01.100Z,2.45
2023-04-23T12:11:06.491Z,1.33
2023-04-23T12:12:11.347Z,1.63
2023-04-23T12:13:27.473Z,2.72
2023-04-23T12:14:31.543Z,1.85
2023-04-23T12:15:50.405Z,1.52
2023-04-23T12:17:09.920Z,2.08
2023-04-23T12:18:22.371Z,1.98
2023-04-23T12:19:32.801Z,1.35
2023-04-23T12:20:40.958Z,1.77
2023-04-23T12:21:57.646Z,2.47
2023-04-23T12:23:10.423Z,1.40
2023-04-23T12:24:17.719Z,2.05
2023-04-23T12:25:27.488Z,3.67
2023-04-23T12:26:44.611Z,1.33
2023-04-23T12:28:01.483Z,5.25
2023-04-23T12:29:08.567Z,1.35
2023-04-23T12:30:20.144Z,2.53
2023-04-23T12:31:37.221Z,4.30
2023-04-23T12:32:48.041Z,1.67
2023-04-23T12:34:04.511Z,3.95
2023-04-23T12:35:14.799Z,1.00
2023-04-23T12:36:31.885Z,1.63
2023-04-23T12:37:45.990Z,1.23
2023-04-23T12:38:51.080Z,5.15
2023-04-23T12:40:02.259Z,2.08
2023-04-23T12:41:06.450Z,3.20
2023-04-23T12:42:13.988Z,1.98
2023-04-23T12:43:22.275Z,2.92
2023-04-23T12:44:30.403Z,2.30
2023-04-23T12:45:47.085Z,3.72
2023-04-23T12:47:28.184Z,2.17
2023-04-23T12:48:35.209Z,3.75
2023-04-23T12:49:45.979Z,1.83
2023-04-23T12:51:03.435Z,5.10
2023-04-23T12:52:14.912Z,1.77
2023-04-23T12:53:25.255Z,2.53
2023-04-23T12:54:39.139Z,2.42
2023-04-23T12:55:49.715Z,5.15
2023-04-23T12:57:00.918Z,2.00
2023-04-23T12:58:12.770Z,1.75
2023-04-23T12:59:19.642Z,2.45
2023-04-23T13:00:26.097Z,2.17
2023-04-23T13:01:33.985Z,1.20
2023-04-23T13:02:44.838Z,1.80
2023-04-23T13:03:50.626Z,1.50
2023-04-23T13:05:01.342Z,2.47
2023-04-23T13:06:15.248Z,1.65
2023-04-23T13:07:28.492Z,1.45
2023-04-23T13:08:35.563Z,1.48
2023-04-23T13:09:42.544Z,1.80
2023-04-23T13:10:57.615Z,1.27
2023-04-23T13:12:13.906Z,1.25
2023-04-23T13:13:26.791Z,3.78
2023-04-23T13:14:33.641Z,1.52
2023-04-23T13:15:41.014Z,1.23
2023-04-23T13:16:48.366Z,7.20
2023-04-23T13:17:54.708Z,6.45
2023-04-23T13:19:00.211Z,1.08
2023-04-23T13:20:31.824Z,4.88
2023-04-23T13:21:47.316Z,1.20
2023-04-23T13:22:51.300Z,1.45
2023-04-23T13:23:59.387Z,2.08
2023-04-23T13:25:06.580Z,2.55
2023-04-23T13:26:16.336Z,2.55
2023-04-23T13:27:33.322Z,4.80
2023-04-23T13:28:40.584Z,2.67
2023-04-23T13:29:47.247Z,1.27
2023-04-23T13:30:55.012Z,4.28
2023-04-23T13:32:04.757Z,2.10
2023-04-23T13:33:08.604Z,1.60
2023-04-23T13:34:12.173Z,2.10
2023-04-23T13:35:18.339Z,1.20
2023-04-23T13:36:22.783Z,2.40
2023-04-23T13:37:27.550Z,1.20
2023-04-23T13:38:31.766Z,3.85
2023-04-23T13:39:41.485Z,4.32
2023-04-23T13:40:45.888Z,5.88
2023-04-23T13:41:59.230Z,3.95
2023-04-23T13:43:06.264Z,2.47
2023-04-23T13:44:10.151Z,2.78
2023-04-23T13:45:14.866Z,2.55
2023-04-23T13:46:19.909Z,1.02
2023-04-23T13:47:24.900Z,3.65
2023-04-23T13:48:31.293Z,1.15
2023-04-23T13:49:35.140Z,2.53
2023-04-23T13:50:39.176Z,2.92
2023-04-23T13:51:44.501Z,1.67
2023-04-23T13:52:48.401Z,1.67
2023-04-23T13:53:55.173Z,1.55
2023-04-23T13:55:00.352Z,4.32
2023-04-23T13:56:04.188Z,0.95
2023-04-23T13:57:08.300Z,1.80
2023-04-23T13:58:12.862Z,4.45
2023-04-23T13:59:20.084Z,1.20
2023-04-23T14:00:27.820Z,1.70
2023-04-23T14:01:31.576Z,3.20
2023-04-23T14:02:37.653Z,2.47
2023-04-23T14:03:42.583Z,2.17
2023-04-23T14:04:47.134Z,1.67
2023-04-23T14:05:50.938Z,1.02
2023-04-23T14:07:01.474Z,5.70
2023-04-23T14:08:09.865Z,2.05
2023-04-23T14:09:17.129Z,2.55
2023-04-23T14:10:26.106Z,1.65
2023-04-23T14:11:35.482Z,1.45
2023-04-23T14:12:45.979Z,2.67
2023-04-23T14:14:05.546Z,1.92
2023-04-23T14:15:11.545Z,1.65
2023-04-23T14:16:30.286Z,1.70
2023-04-23T14:17:37.672Z,1.33
2023-04-23T14:18:55.370Z,1.48
2023-04-23T14:20:08.682Z,4.43
2023-04-23T14:21:15.646Z,2.28
2023-04-23T14:22:22.888Z,1.58
2023-04-23T14:24:10.198Z,2.65
2023-04-23T14:25:53.995Z,2.17
2023-04-23T14:27:03.834Z,1.42
2023-04-23T14:28:40.876Z,2.17
2023-04-23T14:30:10.458Z,3.35
2023-04-23T14:31:15.362Z,1.30
2023-04-23T14:32:20.618Z,1.20
2023-04-23T14:33:27.029Z,2.45
2023-04-23T14:34:32.565Z,1.10
2023-04-23T14:36:49.534Z,0.90
2023-04-23T14:38:08.762Z,6.00
2023-04-23T14:39:32.386Z,1.20
2023-04-23T14:40:39.145Z,1.20
2023-04-23T14:41:55.557Z,1.55
2023-04-23T14:43:15.116Z,2.22
2023-04-23T14:44:19.806Z,2.00
2023-04-23T14:45:23.654Z,2.35
2023-04-23T14:46:28.162Z,1.77
2023-04-23T14:47:32.431Z,2.92
2023-04-23T14:48:37.042Z,1.45
2023-04-23T14:49:42.560Z,1.23
2023-04-23T14:50:50.553Z,2.97
2023-04-23T14:51:59.346Z,1.20
2023-04-23T14:53:07.426Z,1.40
2023-04-23T14:54:44.118Z,1.38
2023-04-23T14:55:51.594Z,1.90
2023-04-23T14:57:18.614Z,6.50
2023-04-23T14:58:24.258Z,4.30
2023-04-23T14:59:28.824Z,2.75
2023-04-23T15:00:38.111Z,2.63
2023-04-23T15:01:44.351Z,4.28
2023-04-23T15:02:51.534Z,2.58
2023-04-23T15:04:03.458Z,15.05
2023-04-23T15:05:16.818Z,1.30
2023-04-23T15:06:24.484Z,1.85
2023-04-23T15:07:36.494Z,1.00
2023-04-23T15:08:43.150Z,2.10
2023-04-23T15:09:49.560Z,1.20